Time;durP1;ratioP1;P1;durP2;ratioP2;P2;SDS_P1;SDS_P2;PMS_P1;PMS_P2;Temp;Humidity;BMP_temperature;BMP_pressure;BME280_temperature;BME280_humidity;BME280_pressure;Samples;Min_cycle;Max_cycle;Signal;HPM_P1;HPM_P2
2023/05/13 00:01:13;;;;;;;20.73;16.42;;;;;;;13.86;87.74;101973.88;5045210;22;20048;-60
2023/05/13 00:03:39;;;;;;;22.30;15.98;;;;;;;13.83;86.35;101971.19;5163177;22;20061;-75
2023/05/13 00:06:04;;;;;;;25.55;16.63;;;;;;;13.84;88.51;101965.09;5088263;22;20059;-74
2023/05/13 00:08:29;;;;;;;22.75;16.90;;;;;;;13.79;86.41;101970.22;5075753;23;20056;-74
2023/05/13 00:10:55;;;;;;;23.65;17.30;;;;;;;13.76;88.01;101971.84;5041530;22;20544;-74
2023/05/13 00:13:20;;;;;;;26.85;18.50;;;;;;;13.75;88.40;101963.13;5128968;23;20053;-59
2023/05/13 00:15:45;;;;;;;24.38;17.92;;;;;;;13.74;88.72;101954.38;5022246;28;20404;-59
2023/05/13 00:18:11;;;;;;;20.45;16.52;;;;;;;13.70;86.93;101957.75;5230091;22;20052;-59
2023/05/13 00:20:36;;;;;;;21.05;16.48;;;;;;;13.72;87.58;101955.16;5236281;22;20065;-74
2023/05/13 00:25:31;;;;;;;25.65;18.50;;;;;;;13.67;88.16;101960.28;5183611;22;20053;-75
2023/05/13 00:27:56;;;;;;;21.58;15.35;;;;;;;13.66;87.20;101960.25;5089921;22;20436;-74
2023/05/13 00:32:57;;;;;;;21.23;16.38;;;;;;;13.62;87.51;101959.25;5123438;22;20060;-60
2023/05/13 00:35:22;;;;;;;29.42;18.30;;;;;;;13.63;88.67;101960.13;5084576;22;20057;-60
2023/05/13 00:37:48;;;;;;;22.63;17.30;;;;;;;13.60;88.26;101958.34;5013725;28;20029;-60
2023/05/13 00:42:44;;;;;;;21.77;17.20;;;;;;;13.54;86.95;101958.13;5071384;22;20595;-75
2023/05/13 00:45:10;;;;;;;22.10;16.10;;;;;;;13.53;87.39;101966.84;5044854;22;20574;-59
2023/05/13 00:47:35;;;;;;;19.25;15.25;;;;;;;13.52;87.77;101965.94;5073749;22;20094;-74
2023/05/13 00:50:01;;;;;;;23.00;17.00;;;;;;;13.50;86.49;101969.38;5057694;23;20020;-59
2023/05/13 00:52:26;;;;;;;19.73;15.80;;;;;;;13.45;87.54;101963.09;5197868;22;20053;-74
2023/05/13 00:54:51;;;;;;;18.98;15.38;;;;;;;13.45;88.58;101965.72;5180442;22;20045;-73
2023/05/13 00:57:17;;;;;;;21.48;16.23;;;;;;;13.42;87.98;101965.63;5152457;22;20833;-61
2023/05/13 00:59:42;;;;;;;20.08;15.38;;;;;;;13.38;87.85;101960.31;5281298;22;20032;-58
2023/05/13 01:02:26;;;;;;;22.13;15.65;;;;;;;13.35;87.79;101962.84;5242927;22;20066;-74
2023/05/13 01:05:00;;;;;;;21.45;15.27;;;;;;;13.27;84.52;101964.28;5177911;22;20065;-59
2023/05/13 01:07:34;;;;;;;22.42;14.90;;;;;;;13.27;86.91;101971.28;5198523;22;20061;-59
2023/05/13 01:10:10;;;;;;;25.15;15.25;;;;;;;13.20;87.79;101965.81;5180661;22;20111;-74
2023/05/13 01:12:39;;;;;;;23.63;15.52;;;;;;;13.17;87.55;101960.50;5015695;22;20046;-74
2023/05/13 01:15:11;;;;;;;20.90;15.05;;;;;;;13.14;86.70;101954.31;5119700;22;20080;-74
2023/05/13 01:20:11;;;;;;;18.38;15.32;;;;;;;13.05;86.71;101966.25;5028888;22;20042;-59
2023/05/13 01:22:36;;;;;;;20.23;15.65;;;;;;;13.03;86.70;101957.47;5066825;23;20194;-59
2023/05/13 01:25:02;;;;;;;21.15;15.32;;;;;;;13.02;87.81;101957.41;4846502;22;20702;-74
2023/05/13 01:27:27;;;;;;;17.90;14.70;;;;;;;13.03;88.64;101965.31;5129940;22;20549;-74
2023/05/13 01:29:56;;;;;;;21.92;15.30;;;;;;;13.01;87.65;101953.91;5093531;23;20094;31
2023/05/13 01:37:17;;;;;;;20.40;14.55;;;;;;;12.89;86.80;101964.00;5138092;22;20061;-73
2023/05/13 01:39:43;;;;;;;20.88;15.45;;;;;;;12.82;86.60;101957.66;5093834;23;20061;-73
2023/05/13 01:42:08;;;;;;;22.70;15.43;;;;;;;12.80;85.19;101966.28;5067812;23;20110;-59
2023/05/13 01:44:34;;;;;;;21.83;14.90;;;;;;;12.77;86.28;101966.19;5037895;22;21121;-73
2023/05/13 01:49:29;;;;;;;19.98;15.20;;;;;;;12.74;86.89;101966.09;5075470;22;20060;-74
2023/05/13 01:51:54;;;;;;;20.95;15.10;;;;;;;12.72;86.78;101966.06;5127711;23;20061;-74
2023/05/13 01:54:19;;;;;;;17.77;14.05;;;;;;;12.69;85.05;101968.56;5020173;22;20072;-59
2023/05/13 01:56:45;;;;;;;18.85;14.98;;;;;;;12.64;85.51;101968.44;5188493;22;20123;-74
2023/05/13 01:59:10;;;;;;;18.23;14.50;;;;;;;12.64;86.12;101967.50;5276038;22;20098;-74
2023/05/13 02:01:35;;;;;;;19.08;14.57;;;;;;;12.61;86.95;101968.28;5062485;22;20015;-59
2023/05/13 02:04:01;;;;;;;19.48;14.45;;;;;;;12.60;85.89;101974.38;5060915;22;20028;-59
2023/05/13 02:06:27;;;;;;;23.23;14.93;;;;;;;12.56;86.93;101972.50;5212295;23;20045;-59
2023/05/13 02:09:39;;;;;;;20.85;14.77;;;;;;;12.55;86.55;101973.31;5182382;23;20160;-58
2023/05/13 02:12:05;;;;;;;18.67;14.35;;;;;;;12.55;86.84;101977.69;4949537;28;21092;-62
2023/05/13 02:14:30;;;;;;;19.48;14.60;;;;;;;12.55;87.55;101973.31;5153785;23;20060;-59
2023/05/13 02:19:27;;;;;;;19.05;14.02;;;;;;;12.49;88.00;101973.13;5238441;22;20049;-59
2023/05/13 02:21:53;;;;;;;21.42;14.32;;;;;;;12.47;88.49;101977.41;5193490;22;20440;-74
2023/05/13 02:24:18;;;;;;;17.88;14.13;;;;;;;12.45;88.65;101976.47;5232892;22;20512;-74
2023/05/13 02:26:43;;;;;;;25.80;14.27;;;;;;;12.39;88.39;101971.03;5228223;22;21229;-60
2023/05/13 02:29:09;;;;;;;20.65;14.38;;;;;;;12.32;87.00;101978.66;4986595;23;20064;-59
2023/05/13 02:31:40;;;;;;;19.40;14.25;;;;;;;12.31;88.31;101978.59;5249835;22;20085;31
2023/05/13 02:34:05;;;;;;;20.35;15.02;;;;;;;12.29;88.67;101980.28;5254935;22;20045;-74
2023/05/13 02:36:30;;;;;;;19.23;14.02;;;;;;;12.24;87.80;101980.13;5187111;22;20670;-60
2023/05/13 02:38:56;;;;;;;21.38;15.00;;;;;;;12.22;89.03;101979.16;5249206;22;20056;-60
2023/05/13 02:41:21;;;;;;;20.00;14.15;;;;;;;12.16;88.20;101976.34;5067882;23;20060;-75
2023/05/13 02:46:18;;;;;;;23.38;15.55;;;;;;;12.09;88.76;101969.13;5060404;22;20084;-74
2023/05/13 02:51:08;;;;;;;20.45;14.75;;;;;;;12.04;87.74;101966.34;5045329;23;20424;-74
2023/05/13 02:53:34;;;;;;;23.45;16.00;;;;;;;12.02;88.54;101959.28;5063614;22;20109;-60
2023/05/13 02:58:29;;;;;;;21.65;16.52;;;;;;;11.96;89.66;101965.19;5172984;22;20084;-60
2023/05/13 03:00:54;;;;;;;21.60;15.80;;;;;;;11.90;89.75;101967.53;5128391;23;20579;-60
2023/05/13 03:05:49;;;;;;;20.48;16.20;;;;;;;11.82;89.52;101968.16;5094643;22;20076;-60
2023/05/13 03:08:14;;;;;;;23.90;16.40;;;;;;;11.82;89.97;101959.44;5123267;22;20056;-59
2023/05/13 03:10:40;;;;;;;20.92;16.80;;;;;;;11.81;90.24;101962.88;5117276;22;20057;-60
2023/05/13 03:13:05;;;;;;;24.35;16.05;;;;;;;11.78;90.06;101960.16;5016624;28;20022;-60
2023/05/13 03:15:30;;;;;;;24.30;16.85;;;;;;;11.71;89.27;101960.78;5089051;22;20081;-75
2023/05/13 03:17:56;;;;;;;21.13;16.25;;;;;;;11.68;89.91;101964.16;5031743;23;1057651;-59
2023/05/13 03:20:21;;;;;;;23.75;16.40;;;;;;;11.63;89.67;101960.50;5155844;22;20409;-74
2023/05/13 03:22:47;;;;;;;24.60;15.93;;;;;;;11.61;89.75;101963.03;5234853;22;20180;-76
2023/05/13 03:25:12;;;;;;;23.17;16.80;;;;;;;11.59;89.70;101964.69;5077133;22;20059;-75
2023/05/13 03:27:37;;;;;;;23.70;15.77;;;;;;;11.58;90.60;101967.25;5066201;23;20025;-59
2023/05/13 03:30:03;;;;;;;21.50;15.65;;;;;;;11.49;90.38;101971.28;5203013;22;20118;-74
2023/05/13 03:32:30;;;;;;;23.70;16.38;;;;;;;11.45;90.82;101972.00;5136366;22;20030;-59
2023/05/13 03:34:57;;;;;;;23.02;15.68;;;;;;;11.38;90.95;101966.50;5093277;22;20198;-74
2023/05/13 03:37:23;;;;;;;19.70;15.52;;;;;;;11.34;90.69;101972.41;5098867;23;20057;-74
2023/05/13 03:39:48;;;;;;;23.08;16.50;;;;;;;11.29;90.16;101975.72;5060167;22;20854;-58
2023/05/13 03:42:13;;;;;;;24.23;16.98;;;;;;;11.27;89.82;101972.19;5000791;28;20025;-58
2023/05/13 03:44:39;;;;;;;23.50;16.77;;;;;;;11.28;90.16;101968.75;5081439;22;20099;-59
2023/05/13 03:47:05;;;;;;;24.25;16.17;;;;;;;11.29;90.34;101970.50;5084829;22;20524;-59
2023/05/13 03:49:30;;;;;;;21.75;15.73;;;;;;;11.23;87.21;101975.50;5058850;22;20208;-60
2023/05/13 03:51:55;;;;;;;21.92;16.35;;;;;;;11.24;89.86;101979.00;5135158;22;20058;-59
2023/05/13 03:54:46;;;;;;;22.60;16.73;;;;;;;11.22;89.89;101981.53;5200868;22;20107;31
2023/05/13 03:57:11;;;;;;;23.20;16.52;;;;;;;11.22;90.17;101984.16;5050540;23;20049;-59
2023/05/13 03:59:36;;;;;;;23.83;16.58;;;;;;;11.20;90.48;101983.22;5058827;23;20444;-74
2023/05/13 04:02:02;;;;;;;23.27;16.05;;;;;;;11.16;89.26;101981.31;5179884;22;20428;-74
2023/05/13 04:06:52;;;;;;;21.88;16.23;;;;;;;11.13;90.58;101983.78;5242807;22;20105;-74
2023/05/13 04:09:17;;;;;;;22.95;16.63;;;;;;;11.10;90.64;101978.47;5064422;22;20053;-59
2023/05/13 04:11:43;;;;;;;22.20;15.05;;;;;;;11.09;90.96;101982.81;5075359;22;20499;-74
2023/05/13 04:14:08;;;;;;;22.40;17.38;;;;;;;11.07;91.31;101980.97;5013622;28;20374;-75
2023/05/13 04:16:34;;;;;;;30.30;16.90;;;;;;;11.03;91.58;101982.53;5088162;22;20151;-74
2023/05/13 04:21:31;;;;;;;22.65;16.98;;;;;;;11.02;91.92;101983.38;5270559;22;20061;-74
2023/05/13 04:23:56;;;;;;;24.52;16.83;;;;;;;11.02;91.54;101995.50;5104828;22;20439;-75
2023/05/13 04:26:22;;;;;;;23.23;16.92;;;;;;;11.02;92.43;101988.59;5231180;23;20977;-59
2023/05/13 04:31:12;;;;;;;23.00;17.58;;;;;;;10.98;92.35;101986.69;5137599;22;20049;-75
2023/05/13 04:33:37;;;;;;;23.88;17.70;;;;;;;10.95;91.91;101990.06;5059362;22;20734;-59
2023/05/13 04:36:03;;;;;;;23.75;16.92;;;;;;;10.93;92.13;101996.03;5124761;22;20078;-59
2023/05/13 04:38:30;;;;;;;23.45;17.10;;;;;;;10.93;92.71;101990.81;5050065;23;20088;-75
2023/05/13 04:40:55;;;;;;;24.95;17.10;;;;;;;10.90;91.53;101996.78;5073682;22;20130;-60
2023/05/13 04:43:20;;;;;;;33.55;22.77;;;;;;;10.89;92.17;101991.53;5020368;28;20033;-60
2023/05/13 04:45:46;;;;;;;26.20;18.27;;;;;;;10.90;92.47;101999.41;5068993;22;20054;-59
2023/05/13 04:48:11;;;;;;;25.75;18.63;;;;;;;10.90;93.15;101996.78;5060859;23;20060;-75
2023/05/13 04:50:37;;;;;;;27.13;18.75;;;;;;;10.88;92.74;102000.19;5088156;23;20053;-75
2023/05/13 04:53:02;;;;;;;24.77;17.95;;;;;;;10.81;90.89;101996.44;5214757;22;20065;-59
2023/05/13 04:55:27;;;;;;;29.63;18.30;;;;;;;10.79;92.50;102004.19;5143932;22;20064;-74
2023/05/13 04:57:53;;;;;;;24.95;18.88;;;;;;;10.80;92.34;101999.84;5233245;22;20068;-74
2023/05/13 05:00:18;;;;;;;26.05;18.08;;;;;;;10.81;92.91;101990.34;5029517;28;20036;-75
2023/05/13 05:05:17;;;;;;;27.25;18.75;;;;;;;10.82;93.40;102007.75;5052904;22;20945;-74
2023/05/13 05:07:42;;;;;;;25.67;18.55;;;;;;;10.84;92.92;102006.97;5052996;23;20049;-58
2023/05/13 05:10:08;;;;;;;25.83;17.98;;;;;;;10.79;91.78;102011.13;5147210;22;20383;-59
2023/05/13 05:15:14;;;;;;;25.33;18.15;;;;;;;10.86;93.34;102007.03;4977079;28;20057;-58
2023/05/13 05:17:42;;;;;;;28.52;19.13;;;;;;;10.90;93.61;102016.78;5129213;22;20135;-75
2023/05/13 05:20:09;;;;;;;28.58;18.88;;;;;;;10.90;92.91;102025.47;5161127;22;20049;-59
2023/05/13 05:22:35;;;;;;;27.15;19.48;;;;;;;10.90;92.99;102020.25;5118802;23;20072;-60
2023/05/13 05:25:00;;;;;;;26.88;19.98;;;;;;;10.94;93.68;102019.56;5183253;22;20064;-74
2023/05/13 05:27:28;;;;;;;29.40;20.98;;;;;;;10.99;93.85;102017.13;5126155;22;20141;-74
2023/05/13 05:29:54;;;;;;;47.72;28.38;;;;;;;11.00;93.94;102018.06;5035091;22;20589;-60
2023/05/13 05:32:19;;;;;;;29.63;20.13;;;;;;;11.01;93.51;102020.72;5281483;22;20020;-60
2023/05/13 05:34:44;;;;;;;30.13;19.65;;;;;;;11.05;93.64;102027.84;5160059;22;20027;-59
2023/05/13 05:39:45;;;;;;;27.92;19.77;;;;;;;11.16;94.31;102028.25;5043351;22;20053;-60
2023/05/13 05:42:10;;;;;;;31.77;20.75;;;;;;;11.20;94.03;102027.56;5160314;22;20130;-60
2023/05/13 05:44:36;;;;;;;30.63;19.98;;;;;;;11.26;94.30;102035.63;5133289;22;20413;-74
2023/05/13 05:47:01;;;;;;;29.55;20.58;;;;;;;11.29;94.45;102033.13;5048871;22;20058;-74
2023/05/13 05:49:26;;;;;;;30.52;20.30;;;;;;;11.32;94.38;102037.59;5176675;22;20131;-74
2023/05/13 05:51:51;;;;;;;31.13;20.92;;;;;;;11.34;94.31;102038.56;5070467;23;20056;-60
2023/05/13 05:54:17;;;;;;;30.35;20.38;;;;;;;11.38;93.57;102037.81;5124438;22;20357;-60
2023/05/13 05:56:42;;;;;;;27.70;20.13;;;;;;;11.43;94.80;102036.31;5229096;22;20064;-74
2023/05/13 05:59:07;;;;;;;29.65;21.65;;;;;;;11.49;94.36;102046.09;5036141;28;20033;-75
2023/05/13 06:04:02;;;;;;;32.35;21.73;;;;;;;11.61;94.14;102036.13;5236616;22;20347;-60
2023/05/13 06:08:57;;;;;;;32.10;21.95;;;;;;;11.76;93.51;102038.44;5098131;22;20057;-59
2023/05/13 06:11:22;;;;;;;32.88;22.83;;;;;;;11.82;94.26;102040.41;4986299;22;20042;-74
2023/05/13 06:16:18;;;;;;;31.00;20.92;;;;;;;11.90;93.84;102048.50;5116463;22;20052;-75
2023/05/13 06:18:43;;;;;;;32.10;22.02;;;;;;;11.95;93.95;102039.19;5080286;22;20054;-60
2023/05/13 06:21:09;;;;;;;32.00;22.08;;;;;;;12.02;93.14;102054.25;5116850;22;20578;-60
2023/05/13 06:23:34;;;;;;;31.95;22.20;;;;;;;12.11;93.25;102056.31;5164310;22;20072;-60
2023/05/13 06:25:59;;;;;;;30.25;22.42;;;;;;;12.19;92.98;102057.44;5014990;28;20037;-60
2023/05/13 06:28:28;;;;;;;30.63;21.83;;;;;;;12.26;93.19;102054.22;5142979;23;20052;31
2023/05/13 06:30:54;;;;;;;33.40;23.40;;;;;;;12.32;92.29;102049.22;5027595;22;20575;-60
2023/05/13 06:33:19;;;;;;;30.50;22.33;;;;;;;12.33;91.64;102060.56;5087074;23;20057;-59
2023/05/13 06:35:48;;;;;;;31.10;21.83;;;;;;;12.32;92.53;102059.66;4998553;22;20049;-59
2023/05/13 06:38:16;;;;;;;33.40;23.15;;;;;;;12.35;94.22;102053.66;5098726;22;20444;-76
2023/05/13 06:40:41;;;;;;;30.33;22.58;;;;;;;12.40;93.61;102056.44;5064684;22;20042;-59
2023/05/13 06:43:07;;;;;;;31.50;22.45;;;;;;;12.48;93.08;102049.78;5060473;23;20049;-74
2023/05/13 06:45:32;;;;;;;31.77;22.15;;;;;;;12.55;93.34;102057.00;5108634;22;20080;-74
2023/05/13 06:50:30;;;;;;;33.80;23.52;;;;;;;12.66;93.52;102060.88;5019632;28;20041;-60
2023/05/13 06:52:56;;;;;;;35.30;23.45;;;;;;;12.70;93.53;102060.16;5069554;22;20060;-74
2023/05/13 06:55:22;;;;;;;33.70;23.33;;;;;;;12.67;93.28;102062.66;5169857;22;20120;-75
2023/05/13 06:57:47;;;;;;;34.63;23.85;;;;;;;12.72;93.06;102062.81;5090763;23;20054;-75
2023/05/13 07:00:13;;;;;;;33.97;23.77;;;;;;;12.81;94.62;102062.25;5132227;23;20531;-74
2023/05/13 07:02:38;;;;;;;34.50;23.95;;;;;;;12.95;91.65;102068.81;5046888;22;20105;-59
2023/05/13 07:05:04;;;;;;;36.10;24.63;;;;;;;13.09;93.07;102068.38;5157072;22;20064;-60
2023/05/13 07:07:29;;;;;;;34.90;23.55;;;;;;;13.17;91.41;102069.53;5033135;22;20542;-59
2023/05/13 07:09:55;;;;;;;35.83;23.88;;;;;;;13.18;92.06;102071.31;5021248;28;20038;-59
2023/05/13 07:14:45;;;;;;;36.38;24.67;;;;;;;13.17;93.32;102070.41;5043220;22;20053;-59
2023/05/13 07:17:11;;;;;;;34.40;23.70;;;;;;;13.19;92.95;102066.13;5081636;23;20056;-60
2023/05/13 07:22:01;;;;;;;33.35;23.63;;;;;;;13.26;93.49;102054.13;5137306;22;20045;-59
2023/05/13 07:26:52;;;;;;;32.42;23.35;;;;;;;13.37;93.46;102050.16;5054396;23;20056;-75
2023/05/13 07:32:08;;;;;;;37.60;26.38;;;;;;;13.73;94.54;102046.88;5167542;22;20688;-59
2023/05/13 07:34:33;;;;;;;34.40;24.90;;;;;;;13.85;92.09;102048.09;5011253;22;20175;-74
2023/05/13 07:36:58;;;;;;;36.33;24.92;;;;;;;13.96;92.76;102049.31;5175483;22;20078;-74
2023/05/13 07:39:25;;;;;;;34.97;25.30;;;;;;;14.08;91.02;102054.88;5103002;22;20029;-74
2023/05/13 07:44:19;;;;;;;35.90;25.15;;;;;;;14.46;93.32;102053.31;5056038;22;20045;-75
2023/05/13 07:46:45;;;;;;;34.55;24.02;;;;;;;14.59;90.95;102058.91;5153201;22;20054;-59
2023/05/13 07:49:10;;;;;;;35.33;25.38;;;;;;;14.75;92.40;102059.34;5013892;28;20031;-60
2023/05/13 07:51:36;;;;;;;32.08;24.00;;;;;;;14.89;88.00;102062.34;5062158;23;20049;-74
2023/05/13 07:54:01;;;;;;;35.13;25.63;;;;;;;15.03;91.28;102054.78;5058509;23;20464;-60
2023/05/13 07:56:27;;;;;;;32.75;24.45;;;;;;;15.22;90.98;102057.03;5155852;22;20088;-76
2023/05/13 07:58:52;;;;;;;34.80;24.58;;;;;;;15.37;91.00;102066.13;5096367;22;20091;-60
2023/05/13 08:01:17;;;;;;;32.42;23.65;;;;;;;15.47;87.47;102057.59;5085636;22;20193;-75
2023/05/13 08:06:12;;;;;;;32.42;22.83;;;;;;;15.53;84.23;102062.09;5226117;22;19921;-61
2023/05/13 08:11:12;;;;;;;33.70;24.13;;;;;;;15.72;89.47;102053.75;5121546;22;20062;-59
2023/05/13 08:13:38;;;;;;;31.80;21.88;;;;;;;15.85;83.68;102065.47;5034361;23;20045;-75
2023/05/13 08:16:05;;;;;;;27.70;21.13;;;;;;;16.06;85.40;102065.03;5018048;28;20153;-74
2023/05/13 08:18:31;;;;;;;29.67;22.45;;;;;;;16.24;79.08;102068.91;5089331;22;20052;-58
2023/05/13 08:20:56;;;;;;;29.13;22.98;;;;;;;16.41;81.99;102077.09;5101039;23;20992;-59
2023/05/13 08:23:22;;;;;;;33.65;23.85;;;;;;;16.63;86.59;102068.75;5063443;22;20020;-74
2023/05/13 08:25:47;;;;;;;29.58;21.65;;;;;;;16.65;80.56;102066.16;5066336;23;20033;-56
2023/05/13 08:28:12;;;;;;;27.33;21.58;;;;;;;16.60;80.96;102068.72;5071439;23;20032;-57
2023/05/13 08:30:42;;;;;;;30.23;22.27;;;;;;;16.55;80.59;102065.09;5191872;22;20134;-73
2023/05/13 08:36:06;;;;;;;38.63;23.65;;;;;;;16.83;82.75;102069.13;5096409;22;20156;-74
2023/05/13 08:41:02;;;;;;;;;;;;;;;17.25;82.64;102061.03;5112105;22;20058;-74
2023/05/13 08:46:33;;;;;;;30.88;23.92;;;;;;;17.69;78.94;102056.41;5135412;22;20064;-74
2023/05/13 08:53:56;;;;;;;27.33;21.58;;;;;;;18.01;78.30;102063.88;5097866;22;20095;-74
2023/05/13 08:56:54;;;;;;;34.10;24.35;;;;;;;18.22;80.66;102062.41;5068599;22;20050;-60
2023/05/13 08:59:19;;;;;;;29.73;22.58;;;;;;;18.37;75.64;102056.41;5090610;22;20536;-74
2023/05/13 09:01:44;;;;;;;30.10;22.95;;;;;;;18.39;74.45;102058.19;5109621;22;20060;-73
2023/05/13 09:06:41;;;;;;;29.42;22.50;;;;;;;18.62;79.01;102056.63;5036536;23;20107;-74
2023/05/13 09:09:08;;;;;;;28.23;22.45;;;;;;;18.68;74.35;102052.28;5064304;22;20065;-58
2023/05/13 09:11:33;;;;;;;34.13;25.40;;;;;;;18.86;74.84;102053.34;5116000;22;20066;-75
2023/05/13 09:14:01;;;;;;;28.90;23.15;;;;;;;18.95;72.52;102050.81;5136156;22;20123;-60
2023/05/13 09:16:27;;;;;;;33.55;24.10;;;;;;;19.08;74.93;102062.34;5081033;22;20061;-74
2023/05/13 09:19:01;;;;;;;27.38;23.38;;;;;;;19.10;72.47;102050.03;5072177;22;20789;-60
2023/05/13 09:21:29;;;;;;;31.45;23.33;;;;;;;19.23;74.39;102051.91;5042850;22;20026;-61
2023/05/13 09:24:21;;;;;;;29.02;23.15;;;;;;;19.32;72.01;102051.09;5035733;23;20065;-73
2023/05/13 09:27:12;;;;;;;27.05;21.55;;;;;;;19.48;70.16;102044.13;5104253;22;20501;31
2023/05/13 09:29:37;;;;;;;30.65;22.83;;;;;;;19.56;72.96;102044.19;5015390;23;20052;-62
2023/05/13 09:32:08;;;;;;;28.30;23.15;;;;;;;19.73;76.57;102041.63;5044972;28;20036;-62
2023/05/13 09:34:34;;;;;;;28.73;22.85;;;;;;;19.94;73.67;102040.84;5190687;22;20075;-62
2023/05/13 09:39:51;;;;;;;30.02;23.33;;;;;;;20.05;73.17;102033.84;5052967;22;20055;-61
2023/05/13 09:44:46;;;;;;;32.00;22.23;;;;;;;20.17;71.98;102032.13;5123375;22;20359;-74
2023/05/13 09:47:16;;;;;;;28.67;20.92;;;;;;;20.28;68.03;102033.91;5220117;23;20065;-73
2023/05/13 09:49:43;;;;;;;27.88;21.15;;;;;;;20.39;72.00;102038.34;5164421;23;20614;-61
2023/05/13 09:57:12;;;;;;;23.95;18.98;;;;;;;20.64;64.55;102029.56;5045277;22;20042;-73
2023/05/13 09:59:38;;;;;;;26.50;19.65;;;;;;;20.94;70.15;102025.19;5105118;22;20040;-61
2023/05/13 10:02:06;;;;;;;24.92;19.48;;;;;;;20.98;67.43;102026.03;5152770;22;21028;-60
2023/05/13 10:04:31;;;;;;;28.58;20.58;;;;;;;21.01;68.15;102019.00;5215410;22;20148;-61
2023/05/13 10:07:02;;;;;;;26.08;19.45;;;;;;;21.23;66.84;102016.28;5035635;28;20103;-61
2023/05/13 10:09:33;;;;;;;25.42;17.50;;;;;;;21.49;68.61;102018.00;5034659;28;20140;-61
2023/05/13 10:16:59;;;;;;;23.23;18.40;;;;;;;21.89;66.25;102015.22;5034288;22;20076;-61
2023/05/13 10:19:25;;;;;;;21.35;17.25;;;;;;;22.11;68.91;102020.41;5073030;22;20088;-63
2023/05/13 10:21:53;;;;;;;21.83;17.60;;;;;;;22.08;60.19;102012.47;5085655;22;20061;-60
2023/05/13 10:26:44;;;;;;;20.73;16.40;;;;;;;22.30;58.78;102010.56;5090470;22;20053;-59
2023/05/13 10:31:36;;;;;;;25.70;17.63;;;;;;;22.52;59.48;102009.56;5050317;23;20049;-73
2023/05/13 10:34:02;;;;;;;19.13;16.30;;;;;;;22.57;63.40;102009.53;5101460;22;20045;-59
2023/05/13 10:36:51;;;;;;;19.10;15.85;;;;;;;22.81;62.09;102002.22;5185484;22;20057;-59
2023/05/13 10:42:03;;;;;;;17.25;13.70;;;;;;;23.11;62.18;102003.75;5126934;22;20168;-72
2023/05/13 10:44:31;;;;;;;19.30;14.32;;;;;;;23.27;58.11;102002.72;5058641;23;20060;-60
2023/05/13 10:46:57;;;;;;;16.67;13.80;;;;;;;23.20;58.50;102000.09;5213157;22;20768;-72
2023/05/13 10:49:25;;;;;;;19.00;13.55;;;;;;;23.22;57.23;101993.88;5067691;22;20637;-58
2023/05/13 10:51:50;;;;;;;16.33;13.77;;;;;;;23.09;54.06;101987.78;5197200;22;20060;-72
2023/05/13 10:54:21;;;;;;;16.13;13.63;;;;;;;23.07;58.65;101997.56;5018168;28;20037;-71
2023/05/13 10:59:20;;;;;;;15.43;11.88;;;;;;;23.32;53.07;101992.00;5187595;23;20057;-58
2023/05/13 11:09:21;;;;;;;14.05;11.10;;;;;;;23.74;54.12;101995.03;5022826;22;20119;-58
2023/05/13 11:11:51;;;;;;;14.20;11.38;;;;;;;23.94;56.58;101985.94;5057651;23;20057;-72
2023/05/13 11:16:47;;;;;;;13.15;9.93;;;;;;;24.19;55.26;101983.81;5017698;28;20096;-72
2023/05/13 11:19:26;;;;;;;14.45;9.65;;;;;;;23.88;44.77;101983.34;5086265;22;20080;-58
2023/05/13 11:21:54;;;;;;;12.15;8.70;;;;;;;23.67;44.13;101969.41;5116851;22;20029;-58
2023/05/13 11:24:20;;;;;;;10.13;8.60;;;;;;;23.69;46.84;101972.06;5079672;23;20084;-72
2023/05/13 11:26:55;;;;;;;13.00;9.27;;;;;;;23.76;51.35;101969.28;5075383;22;20038;-58
2023/05/13 11:31:57;;;;;;;11.15;9.15;;;;;;;23.70;41.95;101964.03;4872026;22;20066;-58
2023/05/13 11:34:22;;;;;;;10.40;8.45;;;;;;;23.88;47.04;101967.38;5069184;23;20309;-58
2023/05/13 11:36:50;;;;;;;11.70;8.75;;;;;;;24.18;53.84;101968.72;5033980;22;20029;-71
2023/05/13 11:39:17;;;;;;;12.00;8.90;;;;;;;24.53;48.42;101961.06;5175974;22;1103752;-72
2023/05/13 11:41:45;;;;;;;10.43;8.13;;;;;;;24.51;48.31;101965.56;5120951;22;20118;-72
2023/05/13 11:46:58;;;;;;;10.52;7.60;;;;;;;24.50;45.50;101955.81;5227997;22;20057;-72
2023/05/13 11:49:40;;;;;;;9.48;7.55;;;;;;;24.58;46.67;101959.22;5116851;23;20119;-72
2023/05/13 11:52:09;;;;;;;10.82;7.45;;;;;;;24.48;38.84;101956.69;5035166;28;20484;-72
2023/05/13 11:54:47;;;;;;;9.15;7.20;;;;;;;24.53;38.66;101950.41;5047874;23;20568;-57
2023/05/13 12:00:04;;;;;;;9.55;7.40;;;;;;;25.13;44.27;101939.56;5101911;22;20065;-72
2023/05/13 12:02:35;;;;;;;8.82;7.10;;;;;;;25.48;40.98;101945.13;5098953;22;20057;-59
2023/05/13 12:05:03;;;;;;;9.00;6.90;;;;;;;25.60;44.04;101943.97;5079627;22;20055;-57
2023/05/13 12:07:29;;;;;;;10.65;7.20;;;;;;;25.75;45.65;101940.97;5137565;22;20036;-72
2023/05/13 12:12:39;;;;;;;8.93;6.78;;;;;;;25.52;38.34;101945.00;5036713;22;20032;-71
2023/05/13 12:15:12;;;;;;;8.70;6.60;;;;;;;25.25;42.81;101940.22;5106474;22;21536;-57
2023/05/13 12:17:38;;;;;;;9.07;6.88;;;;;;;25.25;43.86;101940.22;5036906;23;20122;-71
2023/05/13 12:20:09;;;;;;;14.07;8.02;;;;;;;25.18;42.19;101929.66;5266240;22;20028;-57
2023/05/13 12:22:36;;;;;;;9.70;7.00;;;;;;;24.85;42.78;101925.00;5093901;23;21059;-57
2023/05/13 12:27:31;;;;;;;8.02;7.03;;;;;;;25.16;41.68;101931.50;5126681;22;20057;-60
2023/05/13 12:32:26;;;;;;;8.20;6.40;;;;;;;25.55;42.34;101935.16;5161581;23;20334;-71
2023/05/13 12:34:52;;;;;;;8.50;7.40;;;;;;;25.74;41.63;101935.63;5037897;28;20071;-71
2023/05/13 12:37:17;;;;;;;10.40;7.30;;;;;;;25.79;42.52;101936.44;5081344;23;20381;-57
2023/05/13 12:39:43;;;;;;;8.23;7.33;;;;;;;25.63;41.23;101935.88;5040425;28;20029;-57
2023/05/13 12:44:44;;;;;;;7.57;6.75;;;;;;;25.27;41.64;101939.25;5251965;22;20158;-57
2023/05/13 12:47:11;;;;;;;8.30;6.68;;;;;;;25.31;41.32;101932.13;5019797;28;20029;-58
2023/05/13 12:49:53;;;;;;;9.98;7.22;;;;;;;25.50;42.29;101933.47;5046621;22;20058;-71
2023/05/13 12:52:20;;;;;;;8.85;7.30;;;;;;;25.69;43.95;101922.41;5067424;22;20076;-57
2023/05/13 12:54:45;;;;;;;8.50;6.82;;;;;;;25.65;44.64;101924.28;5128538;23;20123;-57
2023/05/13 12:59:53;;;;;;;7.95;6.47;;;;;;;25.86;39.71;101922.03;5059503;22;20587;-58
2023/05/13 13:04:48;;;;;;;9.68;6.70;;;;;;;26.03;40.15;101929.69;5047292;22;20111;-72
2023/05/13 13:07:13;;;;;;;8.40;6.73;;;;;;;26.12;42.92;101923.22;5034053;28;20021;-72
2023/05/13 13:09:39;;;;;;;10.05;7.00;;;;;;;26.17;40.16;101935.56;5100986;23;20307;-72
2023/05/13 13:12:04;;;;;;;7.65;6.35;;;;;;;26.38;40.01;101934.13;5079938;22;20240;-57
2023/05/13 13:14:30;;;;;;;7.25;6.45;;;;;;;26.37;38.71;101928.81;5095108;23;20048;-58
2023/05/13 13:16:55;;;;;;;7.40;6.43;;;;;;;26.23;38.93;101925.63;5116046;22;20049;-57
2023/05/13 13:19:20;;;;;;;7.43;6.55;;;;;;;26.31;40.72;101926.31;5107517;22;20699;-57
2023/05/13 13:21:46;;;;;;;9.18;6.90;;;;;;;26.37;37.62;101921.72;5040996;28;20040;-58
2023/05/13 13:24:11;;;;;;;8.38;6.15;;;;;;;26.53;39.74;101929.31;5039978;28;20029;-58
2023/05/13 13:26:36;;;;;;;7.25;6.55;;;;;;;26.64;38.84;101932.59;5064492;23;20084;-71
2023/05/13 13:29:02;;;;;;;9.38;6.40;;;;;;;26.49;35.42;101932.97;5154568;22;20474;-58
2023/05/13 13:31:27;;;;;;;37.63;8.27;;;;;;;26.27;39.50;101927.31;5122135;23;20049;-62
2023/05/13 13:33:52;;;;;;;13.98;6.32;;;;;;;26.25;37.23;101922.00;5108436;22;20045;-61
2023/05/13 13:36:18;;;;;;;7.20;6.07;;;;;;;26.07;40.31;101925.13;5056654;23;20075;-72
2023/05/13 13:38:43;;;;;;;8.10;6.80;;;;;;;26.28;38.37;101923.72;5130196;23;20136;-59